Time;durP1;ratioP1;P1;durP2;ratioP2;P2;SDS_P1;SDS_P2;PMS_P1;PMS_P2;Temp;Humidity;BMP_temperature;BMP_pressure;BME280_temperature;BME280_humidity;BME280_pressure;Samples;Min_cycle;Max_cycle;Signal;HPM_P1;HPM_P2
2022/10/17 00:01:21;;;;;;;24.05;3.08;;;;;;;-144.40;100.00;60209.53;4988974;28;20041;-96
2022/10/17 00:03:51;;;;;;;21.90;3.07;;;;;;;-144.40;100.00;60209.53;4993849;28;20105;-96
2022/10/17 00:06:35;;;;;;;23.80;3.35;;;;;;;-144.40;100.00;60209.53;4994039;28;20038;-96
2022/10/17 00:09:00;;;;;;;24.95;3.42;;;;;;;-144.40;100.00;60209.53;4987923;28;20090;-95
2022/10/17 00:11:29;;;;;;;25.23;3.15;;;;;;;-144.40;100.00;60209.53;4993502;28;20038;-96
2022/10/17 00:13:55;;;;;;;21.40;3.05;;;;;;;-144.40;100.00;60209.53;4998540;28;20034;-96
2022/10/17 00:16:35;;;;;;;20.25;3.17;;;;;;;-144.40;100.00;60209.53;4989597;28;20030;-96
2022/10/17 00:19:02;;;;;;;21.00;3.53;;;;;;;-144.40;100.00;60209.53;4984750;28;20022;-95
2022/10/17 00:21:28;;;;;;;22.15;2.70;;;;;;;-144.40;100.00;60209.53;4986034;28;20545;-96
2022/10/17 00:24:00;;;;;;;21.20;3.72;;;;;;;-144.40;100.00;60209.53;4981918;28;20078;-95
2022/10/17 00:26:27;;;;;;;;;;;;;;;-144.40;100.00;60209.53;4985820;28;20021;-96
2022/10/17 00:28:53;;;;;;;24.38;2.80;;;;;;;-144.40;100.00;60209.53;4976808;28;19917;-93
2022/10/17 00:31:23;;;;;;;19.90;2.35;;;;;;;-144.40;100.00;60209.53;4967669;28;20077;-94
2022/10/17 00:33:49;;;;;;;30.38;2.97;;;;;;;-144.40;100.00;60209.53;4975800;28;20042;-96
2022/10/17 00:36:17;;;;;;;21.13;2.65;;;;;;;-144.40;100.00;60209.53;4964335;28;20023;-94
2022/10/17 00:38:45;;;;;;;22.27;2.90;;;;;;;-144.40;100.00;60209.53;4961063;28;20027;-95
2022/10/17 00:41:13;;;;;;;23.60;2.70;;;;;;;-144.40;100.00;60209.53;4960801;28;20027;-95
2022/10/17 00:43:50;;;;;;;23.20;3.00;;;;;;;-144.40;100.00;60209.53;4960695;28;20493;-96
2022/10/17 00:46:16;;;;;;;12.18;2.15;;;;;;;-144.40;100.00;60209.53;4976907;28;20019;-93
2022/10/17 00:48:42;;;;;;;20.05;2.63;;;;;;;-144.40;100.00;60209.53;4960871;28;20030;-95
2022/10/17 00:51:46;;;;;;;;;;;;;;;;;;;;;
2022/10/17 00:54:15;;;;;;;20.52;2.90;;;;;;;-144.40;100.00;60209.53;4978456;28;20031;-95
2022/10/17 00:56:43;;;;;;;22.63;4.05;;;;;;;-144.40;100.00;60209.53;4959917;28;20035;-95
2022/10/17 00:59:11;;;;;;;17.02;1.95;;;;;;;-144.40;100.00;60209.53;4975960;28;20081;-94
2022/10/17 01:01:52;;;;;;;23.67;2.72;;;;;;;-144.40;100.00;60209.53;4960388;28;20552;-95
2022/10/17 01:04:18;;;;;;;17.88;2.30;;;;;;;-144.40;100.00;60209.53;4960791;28;20038;-95
2022/10/17 01:06:47;;;;;;;18.05;2.45;;;;;;;-144.40;100.00;60209.53;4960758;28;20049;-97
2022/10/17 01:09:12;;;;;;;18.48;2.85;;;;;;;-144.40;100.00;60209.53;4960645;28;20034;-95
2022/10/17 01:12:01;;;;;;;21.88;3.10;;;;;;;-144.40;100.00;60209.53;4960727;28;20023;-93
2022/10/17 01:14:44;;;;;;;25.17;2.90;;;;;;;-144.40;100.00;60209.53;4960541;28;20031;-95
2022/10/17 01:17:25;;;;;;;31.15;3.50;;;;;;;-144.40;100.00;60209.53;4961460;28;20054;-95
2022/10/17 01:20:12;;;;;;;26.63;3.20;;;;;;;-144.40;100.00;60209.53;4961415;28;20023;-93
2022/10/17 01:23:17;;;;;;;21.67;2.58;;;;;;;-144.40;100.00;60209.53;4961783;28;20035;-94
2022/10/17 01:26:11;;;;;;;23.60;3.10;;;;;;;-144.40;100.00;60209.53;4915877;28;20066;-95
2022/10/17 01:28:55;;;;;;;20.33;2.47;;;;;;;-144.40;100.00;60209.53;4976063;28;20030;-95
2022/10/17 01:31:24;;;;;;;22.50;3.38;;;;;;;-144.40;100.00;60209.53;4963357;28;20023;-96
2022/10/17 01:34:23;;;;;;;19.10;3.10;;;;;;;-144.40;100.00;60209.53;4963025;28;20039;-94
2022/10/17 01:36:58;;;;;;;26.52;2.88;;;;;;;-144.40;100.00;60209.53;4962263;28;20033;-94
2022/10/17 01:39:50;;;;;;;17.77;3.47;;;;;;;-144.40;100.00;60209.53;4961401;28;20050;-96
2022/10/17 01:42:46;;;;;;;;;;;;;;;;;;;;;
2022/10/17 01:45:24;;;;;;;24.02;3.30;;;;;;;-144.40;100.00;60209.53;4978521;28;20099;-94
2022/10/17 01:47:53;;;;;;;21.15;3.42;;;;;;;-144.40;100.00;60209.53;4977130;28;20030;-96
2022/10/17 01:50:24;;;;;;;29.88;3.17;;;;;;;-144.40;100.00;60209.53;4977128;28;20023;-94
2022/10/17 01:52:54;;;;;;;28.67;3.28;;;;;;;-144.40;100.00;60209.53;4976698;28;20022;-95
2022/10/17 01:55:28;;;;;;;25.70;3.58;;;;;;;-144.40;100.00;60209.53;4978833;28;20034;-96
2022/10/17 01:58:32;;;;;;;25.25;3.88;;;;;;;-144.40;100.00;60209.53;4978543;28;20026;-94
2022/10/17 02:01:02;;;;;;;26.60;3.30;;;;;;;-144.40;100.00;60209.53;4960904;28;20035;-95
2022/10/17 02:03:28;;;;;;;24.63;4.22;;;;;;;-144.40;100.00;60209.53;4960625;28;20077;-95
2022/10/17 02:06:00;;;;;;;27.10;3.88;;;;;;;-144.40;100.00;60209.53;4961352;28;20030;-95
2022/10/17 02:08:49;;;;;;;28.63;4.07;;;;;;;-144.40;100.00;60209.53;4961100;28;20026;-94
2022/10/17 02:11:23;;;;;;;22.65;3.72;;;;;;;-144.40;100.00;60209.53;4960655;28;20039;-96
2022/10/17 02:14:11;;;;;;;36.65;3.90;;;;;;;-144.40;100.00;60209.53;4961635;28;20031;-96
2022/10/17 02:16:53;;;;;;;35.10;3.78;;;;;;;-144.40;100.00;60209.53;4960714;28;20416;-94
2022/10/17 02:19:40;;;;;;;31.50;3.85;;;;;;;-144.40;100.00;60209.53;4960476;28;20038;-94
2022/10/17 02:22:13;;;;;;;33.28;3.65;;;;;;;-144.40;100.00;60209.53;4960770;28;20061;-94
2022/10/17 02:25:02;;;;;;;21.48;3.88;;;;;;;-144.40;100.00;60209.53;4977315;28;20026;-96
2022/10/17 02:27:57;;;;;;;23.15;3.20;;;;;;;-144.40;100.00;60209.53;4916778;29;20036;-94
2022/10/17 02:30:55;;;;;;;14.05;2.65;;;;;;;-144.40;100.00;60209.53;4961062;28;20030;-95
2022/10/17 02:33:39;;;;;;;32.63;3.28;;;;;;;-144.40;100.00;60209.53;4960884;28;20031;-94
2022/10/17 02:36:22;;;;;;;28.30;3.60;;;;;;;-144.40;100.00;60209.53;4962466;28;20043;-95
2022/10/17 02:38:54;;;;;;;31.48;4.40;;;;;;;-144.40;100.00;60209.53;4961378;28;20030;-94
2022/10/17 02:41:20;;;;;;;;;;;;;;;-144.40;100.00;60209.53;4978763;28;20028;-95
2022/10/17 02:43:59;;;;;;;22.80;3.00;;;;;;;-144.40;100.00;60209.53;4984069;28;20390;-96
2022/10/17 02:46:35;;;;;;;27.52;3.47;;;;;;;-144.40;100.00;60209.53;5002670;28;20065;-96
2022/10/17 02:49:04;;;;;;;21.13;2.67;;;;;;;-144.40;100.00;60209.53;4982877;28;20060;-94
2022/10/17 02:51:40;;;;;;;22.15;3.53;;;;;;;-144.40;100.00;60209.53;4980003;28;20472;-93
2022/10/17 02:54:37;;;;;;;24.08;5.10;;;;;;;-144.40;100.00;60209.53;4977405;28;20034;-95
2022/10/17 02:57:29;;;;;;;18.10;3.03;;;;;;;-144.40;100.00;60209.53;4961845;28;20042;-96
2022/10/17 03:00:15;;;;;;;36.67;4.68;;;;;;;-144.40;100.00;60209.53;4961409;28;20027;-95
2022/10/17 03:03:16;;;;;;;19.17;2.90;;;;;;;-144.40;100.00;60209.53;4961208;28;20038;-96
2022/10/17 03:05:50;;;;;;;28.42;3.90;;;;;;;-144.40;100.00;60209.53;4958471;28;20061;-96
2022/10/17 03:08:59;;;;;;;40.95;3.75;;;;;;;-144.40;100.00;60209.53;4961199;28;20183;-95
2022/10/17 03:11:31;;;;;;;19.80;2.80;;;;;;;-144.40;100.00;60209.53;4959624;28;20035;-95
2022/10/17 03:13:57;;;;;;;;;;;;;;;-144.40;100.00;60209.53;4959856;28;20094;-94
2022/10/17 03:16:22;;;;;;;29.85;3.38;;;;;;;-144.40;100.00;60209.53;4959873;28;19960;-95
2022/10/17 03:18:48;;;;;;;23.85;5.00;;;;;;;-144.40;100.00;60209.53;4959626;28;20417;-94
2022/10/17 03:21:19;;;;;;;33.95;3.63;;;;;;;-144.40;100.00;60209.53;4959388;28;20027;-96
2022/10/17 03:23:47;;;;;;;29.80;4.25;;;;;;;-144.40;100.00;60209.53;4964233;28;20046;-95
2022/10/17 03:26:28;;;;;;;17.23;3.83;;;;;;;-144.40;100.00;60209.53;4980977;28;20072;-95
2022/10/17 03:29:03;;;;;;;23.20;2.38;;;;;;;-144.40;100.00;60209.53;4979640;28;20049;-95
2022/10/17 03:31:37;;;;;;;26.92;3.90;;;;;;;-144.40;100.00;60209.53;4995763;28;20165;-94
2022/10/17 03:34:03;;;;;;;21.38;3.15;;;;;;;-144.40;100.00;60209.53;4995587;28;20106;-96
2022/10/17 03:36:28;;;;;;;22.42;2.85;;;;;;;-144.40;100.00;60209.53;4995537;28;20035;-96
2022/10/17 03:38:54;;;;;;;22.25;2.85;;;;;;;-144.40;100.00;60209.53;4973350;28;20033;-95
2022/10/17 03:41:20;;;;;;;31.80;4.00;;;;;;;-144.40;100.00;60209.53;4962097;28;20026;-95
2022/10/17 03:43:46;;;;;;;20.27;2.50;;;;;;;-144.40;100.00;60209.53;4962309;28;20037;-95
2022/10/17 03:46:11;;;;;;;21.90;2.67;;;;;;;-144.40;100.00;60209.53;4962812;28;20029;-95
2022/10/17 03:48:37;;;;;;;18.55;2.67;;;;;;;-144.40;100.00;60209.53;4962358;28;20026;-96
2022/10/17 03:51:06;;;;;;;27.00;2.10;;;;;;;-144.40;100.00;60209.53;4962546;28;20085;-95
2022/10/17 03:53:32;;;;;;;14.75;2.20;;;;;;;-144.40;100.00;60209.53;4962643;28;20018;-94
2022/10/17 03:56:12;;;;;;;23.63;3.08;;;;;;;-144.40;100.00;60209.53;4961781;28;20412;-94
2022/10/17 03:58:39;;;;;;;15.95;2.28;;;;;;;-144.40;100.00;60209.53;4961557;28;20070;-95
2022/10/17 04:01:06;;;;;;;15.57;3.00;;;;;;;-144.40;100.00;60209.53;4962074;28;20027;-95
2022/10/17 04:03:31;;;;;;;28.58;2.88;;;;;;;-144.40;100.00;60209.53;4961762;28;20466;-96
2022/10/17 04:06:02;;;;;;;20.60;2.92;;;;;;;-144.40;100.00;60209.53;4961760;28;20035;-95
2022/10/17 04:08:28;;;;;;;29.25;4.35;;;;;;;-144.40;100.00;60209.53;4960934;28;20497;-94
2022/10/17 04:10:58;;;;;;;22.48;3.22;;;;;;;-144.40;100.00;60209.53;4961824;28;20045;-94
2022/10/17 04:13:24;;;;;;;20.85;2.83;;;;;;;-144.40;100.00;60209.53;4961932;28;20033;-94
2022/10/17 04:15:54;;;;;;;26.35;3.38;;;;;;;-144.40;100.00;60209.53;4961523;28;20027;-94
2022/10/17 04:18:20;;;;;;;26.83;3.45;;;;;;;-144.40;100.00;60209.53;4961644;28;20485;-93
2022/10/17 04:20:46;;;;;;;29.58;3.67;;;;;;;-144.40;100.00;60209.53;4961327;28;20084;-95
2022/10/17 04:23:11;;;;;;;25.38;3.75;;;;;;;-144.40;100.00;60209.53;4960671;28;20023;-96
2022/10/17 04:25:37;;;;;;;20.60;2.42;;;;;;;-144.40;100.00;60209.53;4977493;28;20477;-95
2022/10/17 04:28:02;;;;;;;27.05;3.55;;;;;;;-144.40;100.00;60209.53;4977424;28;20031;-95
2022/10/17 04:30:28;;;;;;;24.85;3.03;;;;;;;-144.40;100.00;60209.53;4977453;28;20525;-95
2022/10/17 04:32:53;;;;;;;20.85;3.13;;;;;;;-144.40;100.00;60209.53;4977418;28;20556;-96
2022/10/17 04:35:19;;;;;;;23.20;2.90;;;;;;;-144.40;100.00;60209.53;4977866;28;20027;-96
2022/10/17 04:37:45;;;;;;;27.83;4.43;;;;;;;-144.40;100.00;60209.53;4982668;28;20027;-96
2022/10/17 04:40:11;;;;;;;25.95;3.22;;;;;;;-144.40;100.00;60209.53;4980061;28;20038;-95
2022/10/17 04:42:36;;;;;;;21.55;2.92;;;;;;;-144.40;100.00;60209.53;4980430;28;20519;-95
2022/10/17 04:45:02;;;;;;;22.38;2.55;;;;;;;-144.40;100.00;60209.53;4980070;28;20022;-95
2022/10/17 04:47:30;;;;;;;18.50;2.65;;;;;;;-144.40;100.00;60209.53;4980442;28;20014;-95
2022/10/17 04:49:56;;;;;;;28.10;3.53;;;;;;;-144.40;100.00;60209.53;4980423;28;20484;-96
2022/10/17 04:52:30;;;;;;;19.42;2.92;;;;;;;-144.40;100.00;60209.53;4979505;28;20037;-95
2022/10/17 04:55:05;;;;;;;17.52;2.70;;;;;;;-144.40;100.00;60209.53;4964797;28;20262;-95
2022/10/17 04:57:34;;;;;;;20.60;2.28;;;;;;;-144.40;100.00;60209.53;4963442;28;20031;-95
2022/10/17 05:00:00;;;;;;;21.15;2.78;;;;;;;-144.40;100.00;60209.53;4977351;28;20058;-96
2022/10/17 05:02:25;;;;;;;15.07;2.97;;;;;;;-144.40;100.00;60209.53;4961219;28;20034;-96
2022/10/17 05:04:51;;;;;;;28.45;3.60;;;;;;;-144.40;100.00;60209.53;4961283;28;20094;-95
2022/10/17 05:07:16;;;;;;;21.85;2.60;;;;;;;-144.40;100.00;60209.53;4992734;28;20034;-96
2022/10/17 05:09:42;;;;;;;13.85;2.40;;;;;;;-144.40;100.00;60209.53;4981986;28;20026;-94
2022/10/17 05:12:07;;;;;;;17.20;2.60;;;;;;;-144.40;100.00;60209.53;4981056;28;20116;-96
2022/10/17 05:14:33;;;;;;;18.75;3.45;;;;;;;-144.40;100.00;60209.53;4996693;28;20026;-95
2022/10/17 05:17:06;;;;;;;21.70;2.33;;;;;;;-144.40;100.00;60209.53;4981114;28;20026;-95
2022/10/17 05:19:38;;;;;;;22.88;2.88;;;;;;;-144.40;100.00;60209.53;4980775;28;20595;-95
2022/10/17 05:22:03;;;;;;;;;;;;;;;-144.40;100.00;60209.53;4964559;28;20038;-96
2022/10/17 05:24:29;;;;;;;28.17;3.47;;;;;;;-144.40;100.00;60209.53;4978544;28;19914;-95
2022/10/17 05:26:54;;;;;;;14.50;3.38;;;;;;;-144.40;100.00;60209.53;4985733;28;20054;-95
2022/10/17 05:29:20;;;;;;;19.42;3.97;;;;;;;-144.40;100.00;60209.53;4984088;28;20033;-95
2022/10/17 05:31:45;;;;;;;21.67;3.47;;;;;;;-144.40;100.00;60209.53;4987595;28;20019;-95
2022/10/17 05:34:11;;;;;;;17.83;2.58;;;;;;;-144.40;100.00;60209.53;4970612;28;20022;-94
2022/10/17 05:36:37;;;;;;;23.58;3.00;;;;;;;-144.40;100.00;60209.53;4988330;28;20035;-94
2022/10/17 05:39:02;;;;;;;21.95;3.38;;;;;;;-144.40;100.00;60209.53;4985239;28;20019;-95
2022/10/17 05:41:28;;;;;;;26.65;3.63;;;;;;;-144.40;100.00;60209.53;4986879;28;20022;-95
2022/10/17 05:43:56;;;;;;;21.23;3.78;;;;;;;-144.40;100.00;60209.53;4977668;28;20038;-95
2022/10/17 05:46:23;;;;;;;15.45;2.60;;;;;;;-144.40;100.00;60209.53;4992245;28;20091;-94
2022/10/17 05:48:55;;;;;;;22.48;3.60;;;;;;;-144.40;100.00;60209.53;4979650;28;20031;-94
2022/10/17 05:51:20;;;;;;;14.18;2.92;;;;;;;-144.40;100.00;60209.53;4972869;28;20041;-95
2022/10/17 05:53:53;;;;;;;25.67;4.97;;;;;;;-144.40;100.00;60209.53;4977567;28;20042;-95
2022/10/17 05:56:21;;;;;;;32.17;3.33;;;;;;;-144.40;100.00;60209.53;4981302;28;20022;-95
2022/10/17 05:59:03;;;;;;;;;;;;;;;;;;;;;
2022/10/17 06:01:29;;;;;;;24.20;2.85;;;;;;;-144.40;100.00;60209.53;4998413;28;20058;-95
2022/10/17 06:03:58;;;;;;;30.48;3.63;;;;;;;-144.40;100.00;60209.53;4980516;28;20042;-95
2022/10/17 07:21:19;;;;;;;25.17;3.65;;;;;;;-144.40;100.00;60209.53;5008703;28;20054;-96
2022/10/17 07:23:51;;;;;;;23.05;3.22;;;;;;;-144.40;100.00;60209.53;4991760;28;20015;-96
2022/10/17 07:26:51;;;;;;;21.63;2.65;;;;;;;-144.40;100.00;60209.53;4987300;28;20034;-96
2022/10/17 07:32:38;;;;;;;22.95;3.67;;;;;;;-144.40;100.00;60209.53;5038105;23;20096;-96
2022/10/17 07:38:37;;;;;;;28.20;4.50;;;;;;;-144.40;100.00;60209.53;4951946;29;20039;-96
2022/10/17 07:44:37;;;;;;;16.38;2.60;;;;;;;-144.40;100.00;60209.53;5001599;28;20050;-96
2022/10/17 07:47:03;;;;;;;17.70;2.58;;;;;;;-144.40;100.00;60209.53;4965533;28;20026;-95
2022/10/17 07:49:32;;;;;;;20.38;3.40;;;;;;;-144.40;100.00;60209.53;4972936;28;20022;-96
2022/10/17 07:52:12;;;;;;;26.52;3.53;;;;;;;-144.40;100.00;60209.53;4974665;28;20058;-96
2022/10/17 07:54:41;;;;;;;18.80;3.53;;;;;;;-144.40;100.00;60209.53;4972377;28;20030;-96
2022/10/17 07:57:21;;;;;;;23.77;4.32;;;;;;;-144.40;100.00;60209.53;4968782;28;20034;-96
2022/10/17 07:59:53;;;;;;;34.83;4.10;;;;;;;-144.40;100.00;60209.53;4978689;28;20050;-95
2022/10/17 08:02:29;;;;;;;20.50;2.50;;;;;;;-144.40;100.00;60209.53;4969967;28;20054;-96
2022/10/17 08:05:06;;;;;;;26.40;3.80;;;;;;;-144.40;100.00;60209.53;4971711;28;20113;-96
2022/10/17 08:07:50;;;;;;;;;;;;;;;;;;;;;
2022/10/17 08:10:26;;;;;;;21.98;4.25;;;;;;;-144.40;100.00;60209.53;4893263;28;20057;-96
2022/10/17 08:13:20;;;;;;;29.52;3.55;;;;;;;-144.40;100.00;60209.53;4944570;28;20497;-96
2022/10/17 08:15:52;;;;;;;23.73;2.85;;;;;;;-144.40;100.00;60209.53;4969588;28;20038;-96
2022/10/17 08:18:17;;;;;;;;;;;;;;;-144.40;100.00;60209.53;4913531;28;20469;-93
2022/10/17 08:20:43;;;;;;;15.05;2.38;;;;;;;-144.40;100.00;60209.53;4985868;28;19910;-91
2022/10/17 08:23:08;;;;;;;19.63;3.83;;;;;;;-144.40;100.00;60209.53;4991482;28;20121;-94
2022/10/17 08:25:37;;;;;;;21.13;3.42;;;;;;;-144.40;100.00;60209.53;4965837;28;20054;-94
2022/10/17 08:28:02;;;;;;;19.50;3.25;;;;;;;-144.40;100.00;60209.53;4968533;28;20054;-92
2022/10/17 08:30:29;;;;;;;34.13;4.50;;;;;;;-144.40;100.00;60209.53;4972465;28;20030;-93
2022/10/17 08:32:55;;;;;;;19.80;3.65;;;;;;;-144.40;100.00;60209.53;4990804;28;20022;-94
2022/10/17 08:35:21;;;;;;;15.80;2.85;;;;;;;-144.40;100.00;60209.53;5007817;28;20377;-93
2022/10/17 08:37:47;;;;;;;21.05;3.33;;;;;;;-144.40;100.00;60209.53;4957187;28;20035;-93
2022/10/17 08:40:25;;;;;;;21.38;3.13;;;;;;;-144.40;100.00;60209.53;4980497;28;20041;-94
2022/10/17 08:43:18;;;;;;;10.85;2.38;;;;;;;-144.40;100.00;60209.53;4977280;28;20132;-94
2022/10/17 08:46:05;;;;;;;16.27;2.67;;;;;;;-144.40;100.00;60209.53;4963997;28;20034;-94
2022/10/17 08:48:35;;;;;;;13.02;2.97;;;;;;;-144.40;100.00;60209.53;4986410;28;20026;-92
2022/10/17 08:51:10;;;;;;;14.05;2.88;;;;;;;-144.40;100.00;60209.53;4979702;28;20039;-94
2022/10/17 08:53:48;;;;;;;17.33;3.10;;;;;;;-144.40;100.00;60209.53;4978618;28;20030;-95
2022/10/17 08:56:20;;;;;;;14.90;2.75;;;;;;;-144.40;100.00;60209.53;4991381;28;20061;-96
2022/10/17 08:58:46;;;;;;;16.83;3.42;;;;;;;-144.40;100.00;60209.53;4974317;28;20535;-95
2022/10/17 09:01:40;;;;;;;14.15;2.50;;;;;;;-144.40;100.00;60209.53;4983634;28;20019;-96
2022/10/17 09:04:40;;;;;;;15.60;3.10;;;;;;;-144.40;100.00;60209.53;4995113;28;20121;-96
2022/10/17 09:07:19;;;;;;;15.75;3.47;;;;;;;-144.40;100.00;60209.53;4984572;28;20026;-93
2022/10/17 09:10:11;;;;;;;15.25;2.78;;;;;;;-144.40;100.00;60209.53;4971358;28;20476;-95
2022/10/17 09:12:43;;;;;;;11.30;2.45;;;;;;;-144.40;100.00;60209.53;4990595;28;20101;-95
2022/10/17 09:16:00;;;;;;;12.07;2.65;;;;;;;-144.40;100.00;60209.53;4978824;28;20030;-94
2022/10/17 09:18:41;;;;;;;10.60;2.40;;;;;;;-144.40;100.00;60209.53;4955114;28;20378;-96
2022/10/17 09:21:18;;;;;;;15.60;2.63;;;;;;;-144.40;100.00;60209.53;4984958;28;20038;-96
2022/10/17 09:23:54;;;;;;;12.20;2.63;;;;;;;-144.40;100.00;60209.53;4970668;28;20041;-93
2022/10/17 09:26:20;;;;;;;10.57;2.85;;;;;;;-144.40;100.00;60209.53;4991136;28;20029;-93
2022/10/17 09:28:54;;;;;;;9.98;2.53;;;;;;;-144.40;100.00;60209.53;4983996;28;20109;-92
2022/10/17 09:31:23;;;;;;;9.90;2.53;;;;;;;-144.40;100.00;60209.53;4979264;28;20034;-93
2022/10/17 09:33:51;;;;;;;11.93;2.53;;;;;;;-144.40;100.00;60209.53;4981522;28;20031;-95
2022/10/17 09:36:23;;;;;;;7.22;1.80;;;;;;;-144.40;100.00;60209.53;4974659;28;20022;-96
2022/10/17 09:39:01;;;;;;;23.38;3.00;;;;;;;-144.40;100.00;60209.53;4974663;28;20034;-96
2022/10/17 09:41:38;;;;;;;16.50;3.10;;;;;;;-144.40;100.00;60209.53;4969805;28;20030;-96
2022/10/17 09:44:34;;;;;;;14.25;2.63;;;;;;;-144.40;100.00;60209.53;4963182;28;20031;-96
2022/10/17 09:47:33;;;;;;;15.45;2.78;;;;;;;-144.40;100.00;60209.53;4978233;28;20022;-95
2022/10/17 09:50:00;;;;;;;9.98;2.72;;;;;;;-144.40;100.00;60209.53;4972348;28;20030;-96
2022/10/17 09:52:32;;;;;;;12.88;2.10;;;;;;;-144.40;100.00;60209.53;4970935;28;20034;-95
2022/10/17 09:55:06;;;;;;;14.15;2.35;;;;;;;-144.40;100.00;60209.53;4993470;28;20034;-95
2022/10/17 09:57:52;;;;;;;8.93;2.25;;;;;;;-144.40;100.00;60209.53;4992550;28;20030;-95
2022/10/17 10:00:38;;;;;;;10.52;2.60;;;;;;;-144.40;100.00;60209.53;4983814;28;20485;-95
2022/10/17 10:03:19;;;;;;;9.52;2.10;;;;;;;-144.40;100.00;60209.53;4979884;28;20259;-94
2022/10/17 10:06:03;;;;;;;10.05;2.40;;;;;;;-144.40;100.00;60209.53;4979930;28;20034;-95
2022/10/17 10:08:30;;;;;;;11.38;2.25;;;;;;;-144.40;100.00;60209.53;4991210;28;20057;-94
2022/10/17 10:10:59;;;;;;;12.70;2.28;;;;;;;-144.40;100.00;60209.53;4980913;28;20026;-95
2022/10/17 10:13:25;;;;;;;10.65;1.80;;;;;;;-144.40;100.00;60209.53;4967758;28;20037;-95
2022/10/17 10:15:52;;;;;;;12.88;2.58;;;;;;;-144.40;100.00;60209.53;4994897;28;20038;-94
2022/10/17 10:18:23;;;;;;;10.30;2.20;;;;;;;-144.40;100.00;60209.53;5200798;23;20039;-94
2022/10/17 10:21:09;;;;;;;7.70;2.20;;;;;;;-144.40;100.00;60209.53;4977363;28;20047;-93
2022/10/17 10:23:39;;;;;;;7.00;2.05;;;;;;;-144.40;100.00;60209.53;4969637;28;20050;-93
2022/10/17 10:26:26;;;;;;;11.27;2.50;;;;;;;-144.40;100.00;60209.53;4974942;28;20034;-93
2022/10/17 10:29:01;;;;;;;15.68;4.07;;;;;;;-144.40;100.00;60209.53;4958693;28;20027;-94
2022/10/17 10:31:38;;;;;;;12.18;2.33;;;;;;;-144.40;100.00;60209.53;4961553;28;20030;-96
2022/10/17 10:34:30;;;;;;;10.65;1.92;;;;;;;-144.40;100.00;60209.53;4956581;28;20026;-94
2022/10/17 10:37:22;;;;;;;13.90;1.95;;;;;;;-144.40;100.00;60209.53;4963274;28;20038;-93
2022/10/17 10:39:53;;;;;;;8.50;1.75;;;;;;;-144.40;100.00;60209.53;4970795;28;20485;-95
2022/10/17 10:42:35;;;;;;;9.80;1.90;;;;;;;-144.40;100.00;60209.53;4960614;28;20053;-95
2022/10/17 10:45:25;;;;;;;12.05;2.10;;;;;;;-144.40;100.00;60209.53;4972064;28;20412;-96
2022/10/17 10:47:57;;;;;;;8.02;1.90;;;;;;;-144.40;100.00;60209.53;4954500;28;20031;-94
2022/10/17 10:50:35;;;;;;;13.13;2.28;;;;;;;-144.40;100.00;60209.53;4973945;28;20027;-96
2022/10/17 10:53:42;;;;;;;7.03;2.38;;;;;;;-144.40;100.00;60209.53;4964774;28;20062;-95
2022/10/17 10:56:36;;;;;;;14.60;2.13;;;;;;;-144.40;100.00;60209.53;4961860;28;20027;-96
2022/10/17 10:59:08;;;;;;;12.68;2.00;;;;;;;-144.40;100.00;60209.53;4958430;28;20031;-95
2022/10/17 11:01:57;;;;;;;6.90;1.20;;;;;;;-144.40;100.00;60209.53;4957819;28;20020;-96
2022/10/17 11:04:41;;;;;;;7.57;1.80;;;;;;;-144.40;100.00;60209.53;4968321;28;20042;-95
2022/10/17 11:07:22;;;;;;;13.70;3.00;;;;;;;-144.40;100.00;60209.53;5026858;23;20456;-94
2022/10/17 11:10:06;;;;;;;6.60;2.08;;;;;;;-144.40;100.00;60209.53;4952327;28;20027;-94
2022/10/17 11:13:02;;;;;;;7.78;1.80;;;;;;;-144.40;100.00;60209.53;4973365;28;20034;-94
2022/10/17 11:15:33;;;;;;;7.53;1.70;;;;;;;-144.40;100.00;60209.53;4935966;28;20053;-93
2022/10/17 11:18:19;;;;;;;15.18;3.80;;;;;;;-144.40;100.00;60209.53;4988482;28;20023;-94
2022/10/17 11:20:57;;;;;;;7.88;1.90;;;;;;;-144.40;100.00;60209.53;4965114;28;20035;-96
2022/10/17 11:23:50;;;;;;;7.30;1.95;;;;;;;-144.40;100.00;60209.53;4973824;28;20405;-95
2022/10/17 11:26:30;;;;;;;12.05;2.08;;;;;;;-144.40;100.00;60209.53;4952938;28;20515;-94
2022/10/17 11:28:59;;;;;;;8.65;2.17;;;;;;;-144.40;100.00;60209.53;4959932;28;20023;-95
2022/10/17 11:31:31;;;;;;;8.63;1.48;;;;;;;-144.40;100.00;60209.53;4957712;28;20126;-94
2022/10/17 11:34:21;;;;;;;8.07;1.88;;;;;;;-144.40;100.00;60209.53;5013467;23;20002;-95
2022/10/17 11:36:54;;;;;;;9.05;1.90;;;;;;;-144.40;100.00;60209.53;4965018;28;20042;-96
2022/10/17 11:40:03;;;;;;;9.13;2.58;;;;;;;-144.40;100.00;60209.53;4972107;28;20020;-96
2022/10/17 11:42:36;;;;;;;10.30;2.03;;;;;;;-144.40;100.00;60209.53;4962137;29;20122;-95
2022/10/17 11:45:10;;;;;;;5.75;1.45;;;;;;;-144.40;100.00;60209.53;4996449;23;20038;-95
2022/10/17 11:47:44;;;;;;;8.05;1.50;;;;;;;-144.40;100.00;60209.53;4961657;28;20029;-94
2022/10/17 11:50:16;;;;;;;9.52;1.48;;;;;;;-144.40;100.00;60209.53;4990938;28;20061;-92
2022/10/17 11:52:45;;;;;;;;;;;;;;;-144.40;100.00;60209.53;4980261;28;20031;-91
2022/10/17 11:55:31;;;;;;;8.07;2.47;;;;;;;-144.40;100.00;60209.53;4981781;28;20455;-93
2022/10/17 11:57:59;;;;;;;11.45;1.88;;;;;;;-144.40;100.00;60209.53;4966718;28;20125;-88
2022/10/17 12:00:37;;;;;;;15.57;2.90;;;;;;;-144.40;100.00;60209.53;4993423;28;20093;-92
2022/10/17 12:03:06;;;;;;;7.70;1.88;;;;;;;-144.40;100.00;60209.53;4972128;28;20499;-93
2022/10/17 12:05:48;;;;;;;18.15;4.03;;;;;;;-144.40;100.00;60209.53;4979197;28;20085;-95
2022/10/17 12:08:27;;;;;;;16.55;2.25;;;;;;;-144.40;100.00;60209.53;4966368;28;20026;-87
2022/10/17 12:11:02;;;;;;;7.82;1.67;;;;;;;-144.40;100.00;60209.53;4979228;28;20488;-88
2022/10/17 12:13:28;;;;;;;8.50;1.23;;;;;;;-144.40;100.00;60209.53;4979060;28;20034;-93
2022/10/17 12:16:17;;;;;;;6.10;1.27;;;;;;;-144.40;100.00;60209.53;4973349;28;20030;-95
2022/10/17 12:18:42;;;;;;;7.40;1.30;;;;;;;-144.40;100.00;60209.53;4959581;28;20397;-93
2022/10/17 12:21:08;;;;;;;7.55;1.83;;;;;;;-144.40;100.00;60209.53;4990968;28;20093;-92
2022/10/17 12:23:35;;;;;;;7.68;1.50;;;;;;;-144.40;100.00;60209.53;4993540;28;20034;-93
2022/10/17 12:26:09;;;;;;;9.75;1.70;;;;;;;-144.40;100.00;60209.53;4959073;28;20480;-93
2022/10/17 12:28:44;;;;;;;6.85;0.85;;;;;;;-144.40;100.00;60209.53;4984778;28;20121;-95
2022/10/17 12:31:24;;;;;;;9.43;2.05;;;;;;;-144.40;100.00;60209.53;4958573;28;20576;-94
2022/10/17 12:33:54;;;;;;;7.82;1.83;;;;;;;-144.40;100.00;60209.53;4973981;28;20110;-93
2022/10/17 12:36:25;;;;;;;7.95;1.60;;;;;;;-144.40;100.00;60209.53;4963968;28;20481;-93
2022/10/17 12:39:13;;;;;;;7.47;1.27;;;;;;;-144.40;100.00;60209.53;4977290;28;20105;-93
2022/10/17 12:41:38;;;;;;;5.93;0.90;;;;;;;-144.40;100.00;60209.53;4958689;28;20034;-95
2022/10/17 12:44:13;;;;;;;11.25;1.60;;;;;;;-144.40;100.00;60209.53;4974070;28;20034;-94
2022/10/17 12:46:51;;;;;;;5.15;1.30;;;;;;;-144.40;100.00;60209.53;4972844;28;20023;-95
2022/10/17 12:50:04;;;;;;;6.10;1.58;;;;;;;-144.40;100.00;60209.53;4978818;28;20027;-92
2022/10/17 12:52:34;;;;;;;5.28;1.05;;;;;;;-144.40;100.00;60209.53;4972118;28;20307;-93
2022/10/17 12:55:02;;;;;;;6.10;1.10;;;;;;;-144.40;100.00;60209.53;4985627;28;20034;-95
2022/10/17 12:57:43;;;;;;;8.05;1.20;;;;;;;-144.40;100.00;60209.53;4997599;28;20030;-96
2022/10/17 13:00:19;;;;;;;7.68;1.27;;;;;;;-144.40;100.00;60209.53;5012679;28;20042;-96
2022/10/17 13:02:46;;;;;;;15.30;5.70;;;;;;;-144.40;100.00;60209.53;5059941;23;20039;-95
2022/10/17 13:13:50;;;;;;;6.25;1.08;;;;;;;-144.40;100.00;60209.53;5526327;22;20053;-96
2022/10/17 13:16:28;;;;;;;12.13;1.83;;;;;;;-144.40;100.00;60209.53;4992279;28;20038;-88
2022/10/17 13:18:54;;;;;;;9.35;1.40;;;;;;;-144.40;100.00;60209.53;5003669;28;20026;-88